TAF KTRI
KTRI 081730Z 0818/0918 26007KT P6SM BKN020 FM081900 27007KT P6SM SCT050 FM082000 28009KT P6SM FEW250 FM091200 00000KT P6SM BKN250=
METAR KTRI
WC KTRI
WS KTRI
WV KTRI